Flight Track Log - Related Links

Times and Time Zones

All times are in EDT time to prevent confusion due to time zone crossing. See the N935SS flight status page for this flight to view local times or setup timezone preferences in your user account.

Time Position Orientation Groundspeed Altitude Reporting Facility
EDT Latitude Longitude Course Direction KTS MPH feet Rate Location/Type
Mon 05:26:42 PM 32.3328 -89.9122 87° East 299 344 5,100  Level Memphis Center
Mon 05:27:42 PM 32.3786 -89.8333 55° Northeast 315 362 5,400 1,450 Climbing Memphis Center
Mon 05:28:42 PM 32.3906 -89.7372 82° East 287 330 8,000 2,467 Climbing Memphis Center
Mon 05:30:00 PM 32.3589 -89.1573 87° East  Level FlightAware Approximate
Mon 05:30:42 PM 32.3853 -89.5308 92° East 306 352 12,800  Level Memphis Center
Mon 05:31:00 PM 32.3664 -89.0050 87° East  Level FlightAware Approximate
Mon 05:31:42 PM 32.3822 -89.4078 92° East 338 389 14,600  Level Memphis Center
Mon 05:32:42 PM 32.3814 -89.2847 90° East 359 413 16,600 1,950 Climbing Memphis Center
Mon 05:33:42 PM 32.3822 -89.1667 89° East 381 438 18,500 1,800 Climbing Memphis Center
Mon 05:34:42 PM 32.3808 -89.0364 91° East 392 451 20,200 1,700 Climbing Memphis Center
Mon 05:35:42 PM 32.3794 -88.8986 91° East 402 463 21,900 1,700 Climbing Memphis Center
Mon 05:36:42 PM 32.4069 -88.7653 76° East 411 473 23,600 1,550 Climbing Memphis Center
Mon 05:37:42 PM 32.4847 -88.6531 51° Northeast 401 461 25,000 700 Climbing Memphis Center
Mon 05:38:42 PM 32.5647 -88.5381 50° Northeast 423 487 25,000 949 Level Memphis Center
Mon 05:40:39 PM 32.7272 -88.2981 51° Northeast 467 537 27,800 1,525 Climbing Atlanta Center
Mon 05:41:39 PM 32.8061 -88.1833 51° Northeast 462 532 29,500 1,350 Climbing Atlanta Center
Mon 05:42:39 PM 32.8853 -88.0633 52° Northeast 457 526 30,500 1,000 Climbing Atlanta Center
Mon 05:43:39 PM 32.9747 -87.9411 49° Northeast 463 533 31,500 1,000 Climbing Atlanta Center
Mon 05:44:39 PM 33.0536 -87.8208 52° Northeast 469 540 32,500 1,000 Climbing Atlanta Center
Mon 05:45:39 PM 33.1389 -87.6956 51° Northeast 474 545 33,500 1,000 Climbing Atlanta Center
Mon 05:46:39 PM 33.2242 -87.5650 52° Northeast 486 559 34,500 750 Climbing Atlanta Center
Mon 05:47:39 PM 33.3111 -87.4342 51° Northeast 491 565 35,000 500 Climbing Atlanta Center
Mon 05:48:39 PM 33.4025 -87.2986 51° Northeast 498 573 35,500 750 Climbing Atlanta Center
Mon 05:49:39 PM 33.4917 -87.1675 51° Northeast 503 579 36,500 1,200 Climbing Atlanta Center
Mon 05:50:39 PM 33.5869 -87.0211 52° Northeast 503 579 37,900 1,300 Climbing Atlanta Center
Mon 05:51:39 PM 33.6736 -86.8944 51° Northeast 501 577 39,100 1,200 Climbing Atlanta Center
Mon 05:52:39 PM 33.7639 -86.7775 47° Northeast 494 568 40,300 950 Climbing Atlanta Center
Mon 05:53:39 PM 33.8519 -86.6578 48° Northeast 476 548 41,000 350 Climbing Atlanta Center
Mon 05:54:39 PM 33.9464 -86.5378 46° Northeast 481 554 41,000  Level Atlanta Center
Mon 05:55:39 PM 34.0428 -86.4128 47° Northeast 492 566 41,000  Level Atlanta Center
Mon 05:56:39 PM 34.1411 -86.2875 46° Northeast 497 572 41,000  Level Atlanta Center
Mon 05:57:39 PM 34.2372 -86.1619 47° Northeast 502 578 41,000  Level Atlanta Center
Mon 05:58:39 PM 34.3353 -86.0336 47° Northeast 508 585 41,000  Level Atlanta Center
Mon 05:59:39 PM 34.4314 -85.9075 47° Northeast 508 585 41,000  Level Atlanta Center
Mon 06:00:39 PM 34.5164 -85.7958 47° Northeast 508 585 41,000  Level Atlanta Center
Mon 06:01:39 PM 34.6100 -85.6692 48° Northeast 503 579 41,000  Level Atlanta Center
Mon 06:02:39 PM 34.7056 -85.5422 48° Northeast 503 579 41,000  Level Atlanta Center
Mon 06:03:39 PM 34.8008 -85.4122 48° Northeast 503 579 41,000  Level Atlanta Center
Mon 06:04:39 PM 34.8983 -85.2822 48° Northeast 508 585 41,000  Level Atlanta Center
Mon 06:05:39 PM 34.9933 -85.1569 47° Northeast 508 585 41,000  Level Atlanta Center
Mon 06:06:39 PM 35.0883 -85.0314 47° Northeast 508 585 41,000  Level Atlanta Center
Mon 06:07:39 PM 35.2017 -84.9333 35° Northeast 490 564 41,000  Level Atlanta Center
Mon 06:08:39 PM 35.3150 -84.8406 34° Northeast 490 564 41,000  Level Atlanta Center
Mon 06:09:39 PM 35.4283 -84.7525 32° Northeast 490 564 41,000  Level Atlanta Center
Mon 06:10:39 PM 35.5414 -84.6614 33° Northeast 490 564 41,000  Level Atlanta Center
Mon 06:11:39 PM 35.6586 -84.5678 33° Northeast 490 564 41,000  Level Atlanta Center
Mon 06:12:39 PM 35.7739 -84.4764 33° Northeast 490 564 41,000  Level Atlanta Center
Mon 06:13:39 PM 35.8867 -84.3822 34° Northeast 490 564 41,000  Level Atlanta Center
Mon 06:14:39 PM 36.0142 -84.2825 32° Northeast 490 564 41,000  Level Atlanta Center
Mon 06:17:11 PM 36.2894 -84.0572 33° Northeast 491 565 41,000  Level Indianapolis Center
Mon 06:18:13 PM 36.4036 -83.9642 33° Northeast 491 565 41,000  Level Indianapolis Center
Mon 06:19:15 PM 36.5369 -83.8558 33° Northeast 489 563 41,000  Level Indianapolis Center
Mon 06:20:17 PM 36.6508 -83.7619 33° Northeast 489 563 41,000  Level Indianapolis Center
Mon 06:21:19 PM 36.7642 -83.6672 34° Northeast 488 562 41,000  Level Indianapolis Center
Mon 06:22:21 PM 36.8797 -83.5731 33° Northeast 491 565 41,000  Level Indianapolis Center
Mon 06:23:23 PM 36.9939 -83.4772 34° Northeast 491 565 41,000  Level Indianapolis Center
Mon 06:24:25 PM 37.1086 -83.3819 34° Northeast 490 564 41,000  Level Indianapolis Center
Mon 06:25:27 PM 37.2417 -83.2694 34° Northeast 488 562 41,000  Level Indianapolis Center
Mon 06:26:29 PM 37.3556 -83.1744 34° Northeast 486 559 41,000  Level Indianapolis Center
Mon 06:27:31 PM 37.4686 -83.0769 34° Northeast 488 562 41,000  Level Indianapolis Center
Mon 06:28:33 PM 37.5808 -82.9839 33° Northeast 480 552 41,000  Level Indianapolis Center
Mon 06:29:35 PM 37.6928 -82.8839 35° Northeast 489 563 41,000  Level Indianapolis Center
Mon 06:30:37 PM 37.8050 -82.7897 34° Northeast 485 558 41,000  Level Indianapolis Center
Mon 06:31:39 PM 37.9189 -82.6919 34° Northeast 490 564 41,000  Level Indianapolis Center
Mon 06:32:41 PM 38.0492 -82.5789 34° Northeast 487 560 41,000  Level Indianapolis Center
Mon 06:33:43 PM 38.1658 -82.4778 34° Northeast 491 565 41,000  Level Indianapolis Center
Mon 06:34:45 PM 38.2792 -82.3789 34° Northeast 491 565 41,000  Level Indianapolis Center
Mon 06:35:48 PM 38.3925 -82.2808 34° Northeast 492 566 41,000 48 Level Indianapolis Center
Mon 06:36:49 PM 38.5058 -82.1811 35° Northeast 491 565 41,100 585 Climbing Indianapolis Center
Mon 06:37:51 PM 38.6161 -82.0844 34° Northeast 481 554 42,200 912 Climbing Indianapolis Center
Mon 06:38:54 PM 38.7247 -81.9889 34° Northeast 472 543 43,000 384 Climbing Indianapolis Center
Mon 06:39:56 PM 38.8356 -81.8911 34° Northeast 476 548 43,000  Level Indianapolis Center
Mon 06:40:58 PM 38.9486 -81.7889 35° Northeast 488 562 43,000  Level Indianapolis Center
Mon 06:42:00 PM 39.0633 -81.6869 35° Northeast 494 568 43,000  Level Indianapolis Center
Mon 06:43:02 PM 39.2011 -81.5619 35° Northeast 501 577 43,000  Level Indianapolis Center
Mon 06:44:04 PM 39.3144 -81.4597 35° Northeast 496 571 43,000  Level Indianapolis Center
Mon 06:45:06 PM 39.4289 -81.3564 35° Northeast 498 573 43,000  Level Indianapolis Center
Mon 06:45:39 PM 39.4875 -81.3039 35° Northeast 498 573 43,000  Level Cleveland Center
Mon 06:46:39 PM 39.6028 -81.2000 35° Northeast 498 573 43,000  Level Cleveland Center
Mon 06:47:39 PM 39.7158 -81.0958 35° Northeast 498 573 43,000  Level Cleveland Center
Mon 06:48:39 PM 39.8289 -80.9939 35° Northeast 498 573 43,000  Level Cleveland Center
Mon 06:49:39 PM 39.9439 -80.8892 35° Northeast 498 573 43,000  Level Cleveland Center
Mon 06:50:39 PM 40.0586 -80.7892 34° Northeast 498 573 43,000  Level Cleveland Center
Mon 06:51:39 PM 40.1775 -80.6972 31° Northeast 492 566 43,000  Level Cleveland Center
Mon 06:52:39 PM 40.2944 -80.6103 30° Northeast 486 559 43,000  Level Cleveland Center
Mon 06:53:39 PM 40.4153 -80.5203 30° Northeast 486 559 43,000  Level Cleveland Center
Mon 06:54:39 PM 40.5339 -80.4275 31° Northeast 492 566 43,000  Level Cleveland Center
Mon 06:55:39 PM 40.6486 -80.3367 31° Northeast 487 560 43,000  Level Cleveland Center
Mon 06:56:39 PM 40.7692 -80.2458 30° Northeast 487 560 43,000  Level Cleveland Center
Mon 06:57:39 PM 40.9044 -80.1408 30° Northeast 492 566 43,000  Level Cleveland Center
Mon 06:58:39 PM 41.0228 -80.0492 30° Northeast 492 566 43,000  Level Cleveland Center
Mon 06:59:39 PM 41.1183 -79.9742 31° Northeast 492 566 43,000  Level Cleveland Center
Mon 07:00:39 PM 41.2469 -79.8761 30° Northeast 487 560 43,000  Level Cleveland Center
Mon 07:01:39 PM 41.3653 -79.7836 30° Northeast 487 560 43,000  Level Cleveland Center
Mon 07:02:39 PM 41.4833 -79.6906 31° Northeast 487 560 43,000  Level Cleveland Center
Mon 07:03:39 PM 41.6036 -79.5975 30° Northeast 487 560 43,000  Level Cleveland Center
Mon 07:04:39 PM 41.7214 -79.5036 31° Northeast 492 566 43,000  Level Cleveland Center
Mon 07:05:39 PM 41.8394 -79.4069 31° Northeast 492 566 43,000  Level Cleveland Center
Mon 07:06:39 PM 41.9572 -79.3100 31° Northeast 492 566 43,000  Level Cleveland Center
Mon 07:07:39 PM 42.0728 -79.2153 31° Northeast 492 566 43,000  Level Cleveland Center
Mon 07:08:39 PM 42.1689 -79.0789 46° Northeast 492 566 43,000  Level Cleveland Center
Mon 07:09:39 PM 42.2186 -78.8953 70° East 492 566 43,000  Level Cleveland Center
Mon 07:10:39 PM 42.2447 -78.7011 80° East 493 567 43,000  Level Cleveland Center
Mon 07:11:39 PM 42.2686 -78.5039 81° East 510 587 43,000  Level Cleveland Center
Mon 07:12:39 PM 42.2919 -78.3094 81° East 515 593 43,000  Level Cleveland Center
Mon 07:13:39 PM 42.3150 -78.1178 81° East 520 598 43,000 -300 Level Cleveland Center
Mon 07:14:39 PM 42.3358 -77.9231 82° East 520 598 42,400 -1,000 Descending Cleveland Center
Mon 07:15:39 PM 42.3603 -77.7281 80° East 526 605 41,000 -1,500 Descending Cleveland Center
Mon 07:16:39 PM 42.3825 -77.5331 81° East 526 605 39,400 -1,500 Descending Cleveland Center
Mon 07:17:39 PM 42.4061 -77.3294 81° East 521 600 38,000 -1,500 Descending Cleveland Center
Mon 07:18:39 PM 42.4275 -77.1369 81° East 516 594 36,400 -1,116 Descending Cleveland Center
Mon 07:21:14 PM 42.5311 -76.6981 72° East 497 572 34,000 -670 Descending Boston Center
Mon 07:22:14 PM 42.5403 -76.5069 86° East 497 572 34,000 -595 Level Boston Center
Mon 07:23:15 PM 42.5456 -76.2931 88° East 505 581 32,800 -1,388 Descending Boston Center
Mon 07:24:15 PM 42.5514 -76.1214 87° East 510 587 31,200 -1,700 Descending Boston Center
Mon 07:25:15 PM 42.5511 -75.9325 90° East 510 587 29,400 -1,831 Descending Boston Center
Mon 07:26:13 PM 42.5042 -75.7522 109° East 504 580 27,600 -1,831 Descending Boston Center
Mon 07:27:13 PM 42.4339 -75.5853 120° Southeast 499 574 25,800 -1,736 Descending Boston Center
Mon 07:28:14 PM 42.3733 -75.4333 118° Southeast 485 558 24,100 -1,785 Descending Boston Center
Mon 07:29:14 PM 42.3106 -75.2814 119° Southeast 469 540 22,200 -1,850 Descending Boston Center
Mon 07:30:14 PM 42.2494 -75.1356 119° Southeast 453 521 20,400 -1,850 Descending Boston Center
Mon 07:31:14 PM 42.1922 -74.9958 119° Southeast 442 509 18,500 -1,200 Descending Boston Center
Mon 07:32:14 PM 42.1350 -74.8592 119° Southeast 431 496 18,000 -248 Descending Boston Center
Mon 07:33:15 PM 42.0772 -74.7197 119° Southeast 425 489 18,000 -344 Level Boston Center
Mon 07:34:16 PM 42.0158 -74.5667 118° Southeast 431 496 17,300 -1,361 Descending Boston Center
Mon 07:35:14 PM 41.9597 -74.4364 120° Southeast 415 478 15,300 -1,815 Descending Boston Center
Mon 07:36:15 PM 41.9075 -74.3147 120° Southeast 393 452 13,700 -1,636 Descending Boston Center
Mon 07:37:15 PM 41.8633 -74.2103 120° Southeast 368 423 12,000 -1,550 Descending Boston Center
Mon 07:38:15 PM 41.8169 -74.1169 124° Southeast 347 399 10,600 -1,550 Descending Boston Center
Mon 07:39:15 PM 41.7472 -74.0456 143° Southeast 260 299 8,900 -1,525 Descending Boston Center
Mon 07:40:13 PM 41.6808 -74.0217 165° South 265 305 7,600 -1,424 Descending Boston Center
Mon 07:41:13 PM 41.6019 -73.9947 166° South 270 311 6,100 -385 Descending Boston Center
Mon 07:43:00 PM 41.3988 -73.8411 159° South  Level FlightAware Approximate
Mon 07:44:38 PM 41.3500 -73.9000 246° West 266 306 5,900  Level New York TRACON
Mon 07:46:00 PM 41.1939 -73.7937 143° Southeast  Level Estimated
Mon 07:47:38 PM 41.1833 -73.8000 246° West 154 177 2,900  Level New York TRACON
Mon 07:48:38 PM 41.1500 -73.7667 143° Southeast 117 135 2,200 -650 Descending New York TRACON
Mon 07:49:38 PM 41.1167 -73.7500 159° South 113 130 1,600 -650 Descending New York TRACON
Mon 07:50:00 PM 41.0667 -73.7000 246° West  Level FlightAware Approximate
Mon 07:50:38 PM 41.1000 -73.7333 143° Southeast 117 135 900  Level New York TRACON
Mon 07:52:00 PM 41.0667 -73.7000 246° West  Level FlightAware Approximate
Mon 07:53:00 PM 41.0667 -73.7000 246° West  Level FlightAware Approximate
Mon 07:59:00 PM 41.0669 -73.7076 246° West  Level Estimated
Mon 08:00:00 PM 41.0667 -73.7000 246° West  Level FlightAware Approximate

Login

Don't have an account? Register now (free) for customized features, flight alerts, and more!